SAVC/CRD METAR and TAF weather

Enter ICAO airport designator
Station Type Date Time Source
SAVC METAR 2022/11/26 08:00 UTC NOAA

SAVC 260800Z VRB05KT CAVOK 14/01 Q1020 RMK PP000


Station Type Date Time Source
SAVC Decoded METAR 2022/11/26 08:00 UTC NOAA

Comodoro Rivadavia Aerodrome, Argentina (SAVC) 45-47S 067-30W 46M
Nov 26, 2022 - 03:00 AM EST / 2022.11.26 0800 UTC
Wind: Variable at 6 MPH (5 KT):0
Visibility: greater than 7 mile(s):0
Temperature: 57 F (14 C)
Dew Point: 33 F (1 C)
Relative Humidity: 41%
Pressure (altimeter): 30.12 in. Hg (1020 hPa)
ob: SAVC 260800Z VRB05KT CAVOK 14/01 Q1020 RMK PP000
cycle: 8

Station Type Date Time Source
SAVC TAF 2022/11/26 06:40 UTC NOAA

TAF
AMD SAVC 260540Z 2606/2706 27020KT CAVOK TX23/2619Z TN14/2610Z
TEMPO 2606/2608 27015G30KT
BECMG 2608/2610 VRB03KT
BECMG 2619/2621 05020KT

Example: see airport list